createdAt,value
2022-11-07T00:00:29.084Z,18.31
2022-11-07T00:01:01.205Z,18.30
2022-11-07T00:01:32.631Z,18.30
2022-11-07T00:02:04.095Z,18.30
2022-11-07T00:02:35.647Z,18.31
2022-11-07T00:03:07.160Z,18.31
2022-11-07T00:03:38.589Z,18.31
2022-11-07T00:04:10.029Z,18.31
2022-11-07T00:04:41.425Z,18.31
2022-11-07T00:05:12.959Z,18.31
2022-11-07T00:05:44.347Z,18.31
2022-11-07T00:06:15.755Z,18.31
2022-11-07T00:06:47.136Z,18.30
2022-11-07T00:07:18.541Z,18.30
2022-11-07T00:07:49.946Z,18.29
2022-11-07T00:08:21.355Z,18.30
2022-11-07T00:08:52.743Z,18.29
2022-11-07T00:09:24.131Z,18.29
2022-11-07T00:09:55.518Z,18.31
2022-11-07T00:10:27.019Z,18.29
2022-11-07T00:10:58.397Z,18.29
2022-11-07T00:11:29.783Z,18.28
2022-11-07T00:12:01.184Z,18.28
2022-11-07T00:12:32.598Z,18.27
2022-11-07T00:13:03.988Z,18.28
2022-11-07T00:13:35.389Z,18.28
2022-11-07T00:14:06.779Z,18.27
2022-11-07T00:14:38.171Z,18.28
2022-11-07T00:15:09.564Z,18.27
2022-11-07T00:15:41.107Z,18.28
2022-11-07T00:16:12.487Z,18.27
2022-11-07T00:16:43.871Z,18.27
2022-11-07T00:17:15.280Z,18.26
2022-11-07T00:17:46.673Z,18.27
2022-11-07T00:18:18.095Z,18.28
2022-11-07T00:18:49.495Z,18.28
2022-11-07T00:19:20.961Z,18.28
2022-11-07T00:19:52.465Z,18.26
2022-11-07T00:20:23.872Z,18.25
2022-11-07T00:20:55.347Z,18.25
2022-11-07T00:21:26.729Z,18.23
2022-11-07T00:21:58.122Z,18.23
2022-11-07T00:22:29.525Z,18.23
2022-11-07T00:23:00.916Z,18.23
2022-11-07T00:23:32.307Z,18.24
2022-11-07T00:24:03.711Z,18.23
2022-11-07T00:24:35.108Z,18.22
2022-11-07T00:25:06.495Z,18.22
2022-11-07T00:25:37.889Z,18.22
2022-11-07T00:26:09.419Z,18.23
2022-11-07T00:26:40.807Z,18.21
2022-11-07T00:27:12.261Z,18.22
2022-11-07T00:27:43.917Z,18.21
2022-11-07T00:28:15.330Z,18.22
2022-11-07T00:28:46.726Z,18.22
2022-11-07T00:29:18.114Z,18.21
2022-11-07T00:29:49.515Z,18.19
2022-11-07T00:30:20.904Z,18.20
2022-11-07T00:30:52.456Z,18.19
2022-11-07T00:31:23.974Z,18.20
2022-11-07T00:31:55.362Z,18.21
2022-11-07T00:32:26.780Z,18.22
2022-11-07T00:33:00.325Z,18.20
2022-11-07T00:33:31.990Z,18.19
2022-11-07T00:34:03.389Z,18.17
2022-11-07T00:34:34.778Z,18.19
2022-11-07T00:35:06.162Z,18.19
2022-11-07T00:35:37.980Z,18.19
2022-11-07T00:36:09.376Z,18.17
2022-11-07T00:36:40.916Z,18.18
2022-11-07T00:37:12.297Z,18.16
2022-11-07T00:37:43.695Z,18.17
2022-11-07T00:38:15.101Z,18.18
2022-11-07T00:38:46.491Z,18.18
2022-11-07T00:39:17.883Z,18.18
2022-11-07T00:39:49.273Z,18.17
2022-11-07T00:40:21.090Z,18.17
2022-11-07T00:40:52.496Z,18.16
2022-11-07T00:41:23.890Z,18.16
2022-11-07T00:41:55.370Z,18.16
2022-11-07T00:42:26.755Z,18.17
2022-11-07T00:42:58.152Z,18.15
2022-11-07T00:43:29.538Z,18.17
2022-11-07T00:44:00.927Z,18.15
2022-11-07T00:44:32.338Z,18.14
2022-11-07T00:45:03.761Z,18.16
2022-11-07T00:45:35.147Z,18.14
2022-11-07T00:46:06.680Z,18.15
2022-11-07T00:46:38.073Z,18.14
2022-11-07T00:47:09.540Z,18.16
2022-11-07T00:47:40.931Z,18.15
2022-11-07T00:48:12.333Z,18.14
2022-11-07T00:48:43.742Z,18.14
2022-11-07T00:49:15.144Z,18.13
2022-11-07T00:49:46.554Z,18.14
2022-11-07T00:50:17.943Z,18.12
2022-11-07T00:50:49.332Z,18.14
2022-11-07T00:51:20.715Z,18.14
2022-11-07T00:51:52.107Z,18.14
2022-11-07T00:52:23.614Z,18.14
2022-11-07T00:52:55.003Z,18.13
2022-11-07T00:53:26.408Z,18.12
2022-11-07T00:53:57.807Z,18.11
2022-11-07T00:54:29.220Z,18.12
2022-11-07T00:55:00.635Z,18.11
2022-11-07T00:55:32.047Z,18.12
2022-11-07T00:56:03.645Z,18.11
2022-11-07T00:56:35.074Z,18.13
2022-11-07T00:57:06.463Z,18.13
2022-11-07T00:57:37.959Z,18.13
2022-11-07T00:58:13.574Z,18.12
2022-11-07T00:58:45.713Z,18.11
2022-11-07T00:59:17.107Z,18.09
2022-11-07T00:59:48.493Z,18.08
2022-11-07T01:00:19.898Z,18.10
2022-11-07T01:00:51.281Z,18.09
2022-11-07T01:01:22.776Z,18.08
2022-11-07T01:01:54.354Z,18.08
2022-11-07T01:02:25.900Z,18.09
2022-11-07T01:02:57.593Z,18.10
2022-11-07T01:03:29.123Z,18.09
2022-11-07T01:04:00.512Z,18.10
2022-11-07T01:04:31.907Z,18.09
2022-11-07T01:05:03.304Z,18.08
2022-11-07T01:05:34.710Z,18.06
2022-11-07T01:06:06.104Z,18.07
2022-11-07T01:06:37.499Z,18.06
2022-11-07T01:07:08.885Z,18.06
2022-11-07T01:07:40.375Z,18.07
2022-11-07T01:08:11.769Z,18.07
2022-11-07T01:08:43.177Z,18.07
2022-11-07T01:09:14.574Z,18.07
2022-11-07T01:09:45.987Z,18.07
2022-11-07T01:10:17.380Z,18.06
2022-11-07T01:10:48.772Z,18.07
2022-11-07T01:11:20.172Z,18.06
2022-11-07T01:11:51.558Z,18.06
2022-11-07T01:12:22.946Z,18.07
2022-11-07T01:12:54.371Z,18.06
2022-11-07T01:13:25.760Z,18.07
2022-11-07T01:13:57.176Z,18.06
2022-11-07T01:14:28.589Z,18.05
2022-11-07T01:14:59.985Z,18.05
2022-11-07T01:15:31.395Z,18.06
2022-11-07T01:16:02.785Z,18.05
2022-11-07T01:16:34.171Z,18.06
2022-11-07T01:17:05.579Z,18.04
2022-11-07T01:17:36.974Z,18.04
2022-11-07T01:18:08.402Z,18.04
2022-11-07T01:18:39.796Z,18.04
2022-11-07T01:19:11.290Z,18.04
2022-11-07T01:19:42.671Z,18.04
2022-11-07T01:20:14.078Z,18.04
2022-11-07T01:20:45.488Z,18.04
2022-11-07T01:21:16.944Z,18.03
2022-11-07T01:21:48.345Z,18.03
2022-11-07T01:22:19.804Z,18.04
2022-11-07T01:22:51.196Z,18.04
2022-11-07T01:23:22.582Z,18.03
2022-11-07T01:23:53.973Z,18.04
2022-11-07T01:24:25.426Z,18.04
2022-11-07T01:24:56.810Z,18.03
2022-11-07T01:25:28.208Z,18.04
2022-11-07T01:25:59.622Z,18.03
2022-11-07T01:26:31.010Z,18.03
2022-11-07T01:27:02.403Z,18.02
2022-11-07T01:27:33.815Z,18.02
2022-11-07T01:28:05.215Z,18.02
2022-11-07T01:28:36.791Z,18.02
2022-11-07T01:29:08.260Z,18.02
2022-11-07T01:29:39.795Z,18.02
2022-11-07T01:30:11.184Z,18.02
2022-11-07T01:30:42.596Z,18.02
2022-11-07T01:31:13.990Z,18.02
2022-11-07T01:31:45.394Z,18.02
2022-11-07T01:32:16.811Z,18.02
2022-11-07T01:32:48.228Z,18.02
2022-11-07T01:33:19.614Z,18.01
2022-11-07T01:33:51.006Z,18.00
2022-11-07T01:34:22.415Z,18.02
2022-11-07T01:34:53.863Z,18.00
2022-11-07T01:35:25.253Z,18.00
2022-11-07T01:35:56.654Z,18.01
2022-11-07T01:36:28.049Z,18.01
2022-11-07T01:36:59.442Z,18.00
2022-11-07T01:37:30.852Z,18.01
2022-11-07T01:38:02.270Z,18.00
2022-11-07T01:38:33.667Z,17.99
2022-11-07T01:39:05.063Z,18.01
2022-11-07T01:39:36.460Z,18.00
2022-11-07T01:40:07.919Z,18.00
2022-11-07T01:40:39.311Z,17.99
2022-11-07T01:41:10.700Z,18.00
2022-11-07T01:41:42.101Z,18.00
2022-11-07T01:42:13.486Z,18.00
2022-11-07T01:42:44.872Z,18.00
2022-11-07T01:43:16.640Z,18.00
2022-11-07T01:43:48.185Z,17.98
2022-11-07T01:44:19.566Z,17.99
2022-11-07T01:44:50.959Z,17.98
2022-11-07T01:45:22.399Z,17.97
2022-11-07T01:45:53.802Z,17.98
2022-11-07T01:46:25.185Z,17.97
2022-11-07T01:46:56.581Z,17.98
2022-11-07T01:47:27.962Z,17.98
2022-11-07T01:47:59.346Z,17.98
2022-11-07T01:48:30.727Z,17.98
2022-11-07T01:49:02.115Z,17.96
2022-11-07T01:49:33.502Z,17.96
2022-11-07T01:50:05.003Z,17.97
2022-11-07T01:50:36.392Z,17.97
2022-11-07T01:51:07.797Z,17.97
2022-11-07T01:51:39.188Z,17.96
2022-11-07T01:52:10.580Z,17.96
2022-11-07T01:52:42.006Z,17.95
2022-11-07T01:53:13.627Z,17.95
2022-11-07T01:53:45.317Z,17.96
2022-11-07T01:54:16.723Z,17.96
2022-11-07T01:54:48.143Z,17.96
2022-11-07T01:55:19.599Z,17.96
2022-11-07T01:55:51.003Z,17.97
2022-11-07T01:56:22.410Z,17.95
2022-11-07T01:56:53.813Z,17.95
2022-11-07T01:57:25.195Z,17.95
2022-11-07T01:57:56.592Z,17.96
2022-11-07T01:58:27.979Z,17.95
2022-11-07T01:58:59.385Z,17.95
2022-11-07T01:59:30.794Z,17.95
2022-11-07T02:00:02.199Z,17.95
2022-11-07T02:00:33.649Z,17.95
2022-11-07T02:01:05.039Z,17.95
2022-11-07T02:01:36.568Z,17.95
2022-11-07T02:02:08.189Z,17.95
2022-11-07T02:02:39.783Z,17.95
2022-11-07T02:03:11.354Z,17.94
2022-11-07T02:03:42.823Z,17.94
2022-11-07T02:04:14.232Z,17.94
2022-11-07T02:04:45.686Z,17.93
2022-11-07T02:05:17.186Z,17.92
2022-11-07T02:05:48.575Z,17.93
2022-11-07T02:06:19.962Z,17.94
2022-11-07T02:06:51.351Z,17.93
2022-11-07T02:07:22.738Z,17.92
2022-11-07T02:07:54.126Z,17.92
2022-11-07T02:08:25.506Z,17.92
2022-11-07T02:08:56.895Z,17.91
2022-11-07T02:09:28.281Z,17.92
2022-11-07T02:09:59.671Z,17.92
2022-11-07T02:10:31.156Z,17.92
2022-11-07T02:11:02.567Z,17.91
2022-11-07T02:11:33.969Z,17.91
2022-11-07T02:12:05.359Z,17.91
2022-11-07T02:12:36.788Z,17.91
2022-11-07T02:13:08.169Z,17.91
2022-11-07T02:13:39.559Z,17.91
2022-11-07T02:14:10.970Z,17.90
2022-11-07T02:14:42.360Z,17.91
2022-11-07T02:15:13.747Z,17.90
2022-11-07T02:15:45.227Z,17.89
2022-11-07T02:16:16.642Z,17.90
2022-11-07T02:16:48.039Z,17.89
2022-11-07T02:17:19.424Z,17.89
2022-11-07T02:17:50.892Z,17.90
2022-11-07T02:18:22.283Z,17.90
2022-11-07T02:18:53.696Z,17.89
2022-11-07T02:19:25.087Z,17.88
2022-11-07T02:19:56.479Z,17.89
2022-11-07T02:20:27.879Z,17.88
2022-11-07T02:20:59.357Z,17.88
2022-11-07T02:21:30.776Z,17.88
2022-11-07T02:22:02.175Z,17.89
2022-11-07T02:22:33.561Z,17.89
2022-11-07T02:23:04.958Z,17.88
2022-11-07T02:23:36.370Z,17.88
2022-11-07T02:24:07.759Z,17.88
2022-11-07T02:24:39.149Z,17.87
2022-11-07T02:25:10.554Z,17.87
2022-11-07T02:25:41.950Z,17.88
2022-11-07T02:26:13.406Z,17.89
2022-11-07T02:26:44.810Z,17.88
2022-11-07T02:27:16.230Z,17.88
2022-11-07T02:27:47.614Z,17.88
2022-11-07T02:28:19.005Z,17.88
2022-11-07T02:28:50.390Z,17.88
2022-11-07T02:29:21.779Z,17.87
2022-11-07T02:29:53.207Z,17.86
2022-11-07T02:30:24.615Z,17.87
2022-11-07T02:30:56.011Z,17.87
2022-11-07T02:31:27.484Z,17.88
2022-11-07T02:31:58.874Z,17.88
2022-11-07T02:32:30.272Z,17.87
2022-11-07T02:33:01.670Z,17.88
2022-11-07T02:33:33.076Z,17.86
2022-11-07T02:34:04.477Z,17.87
2022-11-07T02:34:35.864Z,17.87
2022-11-07T02:35:07.271Z,17.86
2022-11-07T02:35:38.678Z,17.86
2022-11-07T02:36:10.082Z,17.86
2022-11-07T02:36:41.633Z,17.86
2022-11-07T02:37:13.027Z,17.83
2022-11-07T02:37:44.426Z,17.85
2022-11-07T02:38:15.819Z,17.85
2022-11-07T02:38:47.211Z,17.84
2022-11-07T02:39:18.593Z,17.85
2022-11-07T02:39:49.994Z,17.85
2022-11-07T02:40:21.384Z,17.84
2022-11-07T02:40:52.774Z,17.84
2022-11-07T02:41:24.162Z,17.84
2022-11-07T02:41:55.703Z,17.84
2022-11-07T02:42:27.095Z,17.83
2022-11-07T02:42:58.487Z,17.83
2022-11-07T02:43:29.894Z,17.84
2022-11-07T02:44:01.287Z,17.84
2022-11-07T02:44:32.690Z,17.83
2022-11-07T02:45:04.074Z,17.83
2022-11-07T02:45:35.463Z,17.85
2022-11-07T02:46:06.855Z,17.83
2022-11-07T02:46:38.243Z,17.83
2022-11-07T02:47:09.675Z,17.85
2022-11-07T02:47:41.136Z,17.84
2022-11-07T02:48:12.523Z,17.85
2022-11-07T02:48:44.034Z,17.84
2022-11-07T02:49:15.471Z,17.83
2022-11-07T02:49:46.865Z,17.82
2022-11-07T02:50:18.252Z,17.83
2022-11-07T02:50:49.669Z,17.83
2022-11-07T02:51:21.063Z,17.83
2022-11-07T02:51:52.466Z,17.83
2022-11-07T02:52:23.938Z,17.82
2022-11-07T02:52:55.328Z,17.82
2022-11-07T02:53:26.735Z,17.82
2022-11-07T02:53:58.119Z,17.82
2022-11-07T02:54:29.534Z,17.82
2022-11-07T02:55:00.930Z,17.82
2022-11-07T02:55:32.372Z,17.81
2022-11-07T02:56:03.759Z,17.82
2022-11-07T02:56:35.161Z,17.81
2022-11-07T02:57:06.567Z,17.81
2022-11-07T02:57:38.022Z,17.82
2022-11-07T02:58:09.409Z,17.81
2022-11-07T02:58:40.813Z,17.81
2022-11-07T02:59:12.209Z,17.82
2022-11-07T02:59:43.599Z,17.80
2022-11-07T03:00:14.990Z,17.81
2022-11-07T03:00:46.392Z,17.81
2022-11-07T03:01:17.851Z,17.81
2022-11-07T03:01:49.473Z,17.81
2022-11-07T03:02:21.135Z,17.80
2022-11-07T03:02:52.855Z,17.80
2022-11-07T03:03:24.278Z,17.79
2022-11-07T03:03:55.672Z,17.81
2022-11-07T03:04:27.060Z,17.81
2022-11-07T03:04:58.467Z,17.80
2022-11-07T03:05:29.856Z,17.79
2022-11-07T03:06:01.268Z,17.80
2022-11-07T03:06:32.660Z,17.80
2022-11-07T03:07:04.059Z,17.80
2022-11-07T03:07:35.475Z,17.81
2022-11-07T03:08:06.921Z,17.80
2022-11-07T03:08:38.315Z,17.78
2022-11-07T03:09:09.711Z,17.80
2022-11-07T03:09:41.117Z,17.80
2022-11-07T03:10:12.511Z,17.79
2022-11-07T03:10:43.905Z,17.80
2022-11-07T03:11:15.340Z,17.80
2022-11-07T03:11:46.752Z,17.80
2022-11-07T03:12:18.148Z,17.80
2022-11-07T03:12:49.542Z,17.79
2022-11-07T03:13:21.091Z,17.80
2022-11-07T03:13:52.473Z,17.79
2022-11-07T03:14:23.935Z,17.78
2022-11-07T03:14:55.367Z,17.78
2022-11-07T03:15:26.793Z,17.79
2022-11-07T03:15:58.218Z,17.78
2022-11-07T03:16:29.603Z,17.78
2022-11-07T03:17:01.010Z,17.78
2022-11-07T03:17:32.417Z,17.78
2022-11-07T03:18:03.804Z,17.77
2022-11-07T03:18:35.251Z,17.77
2022-11-07T03:19:06.635Z,17.78
2022-11-07T03:19:38.028Z,17.77
2022-11-07T03:20:09.419Z,17.76
2022-11-07T03:20:40.810Z,17.77
2022-11-07T03:21:12.200Z,17.75
2022-11-07T03:21:43.605Z,17.75
2022-11-07T03:22:14.999Z,17.75
2022-11-07T03:22:46.411Z,17.75
2022-11-07T03:23:18.145Z,17.75
2022-11-07T03:23:49.718Z,17.74
2022-11-07T03:24:21.110Z,17.75
2022-11-07T03:24:52.499Z,17.73
2022-11-07T03:25:23.885Z,17.75
2022-11-07T03:25:55.268Z,17.74
2022-11-07T03:26:26.678Z,17.74
2022-11-07T03:26:58.067Z,17.75
2022-11-07T03:27:29.463Z,17.75
2022-11-07T03:28:00.852Z,17.74
2022-11-07T03:28:32.246Z,17.74
2022-11-07T03:29:03.776Z,17.75
2022-11-07T03:29:35.192Z,17.75
2022-11-07T03:30:06.578Z,17.74
2022-11-07T03:30:37.962Z,17.73
2022-11-07T03:31:09.362Z,17.73
2022-11-07T03:31:40.752Z,17.73
2022-11-07T03:32:12.138Z,17.73
2022-11-07T03:32:43.555Z,17.73
2022-11-07T03:33:15.247Z,17.73
2022-11-07T03:33:46.876Z,17.72
2022-11-07T03:34:18.376Z,17.73
2022-11-07T03:34:49.771Z,17.73
2022-11-07T03:35:21.190Z,17.72
2022-11-07T03:35:52.600Z,17.72
2022-11-07T03:36:23.989Z,17.72
2022-11-07T03:36:55.374Z,17.73
2022-11-07T03:37:26.766Z,17.72
2022-11-07T03:37:58.183Z,17.72
2022-11-07T03:38:29.574Z,17.72
2022-11-07T03:39:01.019Z,17.72
2022-11-07T03:39:32.508Z,17.71
2022-11-07T03:40:03.922Z,17.71
2022-11-07T03:40:35.316Z,17.71
2022-11-07T03:41:06.724Z,17.71
2022-11-07T03:41:38.116Z,17.71
2022-11-07T03:42:09.499Z,17.72
2022-11-07T03:42:40.898Z,17.71
2022-11-07T03:43:12.535Z,17.71
2022-11-07T03:43:44.219Z,17.71
2022-11-07T03:44:15.610Z,17.71
2022-11-07T03:44:47.078Z,17.71
2022-11-07T03:45:18.565Z,17.72
2022-11-07T03:45:50.005Z,17.71
2022-11-07T03:46:21.395Z,17.71
2022-11-07T03:46:52.783Z,17.70
2022-11-07T03:47:24.179Z,17.70
2022-11-07T03:47:55.567Z,17.70
2022-11-07T03:48:26.956Z,17.69
2022-11-07T03:48:58.496Z,17.70
2022-11-07T03:49:29.929Z,17.69
2022-11-07T03:50:01.341Z,17.69
2022-11-07T03:50:32.736Z,17.69
2022-11-07T03:51:04.128Z,17.69
2022-11-07T03:51:35.519Z,17.68
2022-11-07T03:52:06.908Z,17.69
2022-11-07T03:52:38.317Z,17.69
2022-11-07T03:53:09.706Z,17.68
2022-11-07T03:53:41.100Z,17.69
2022-11-07T03:54:12.506Z,17.69
2022-11-07T03:54:43.950Z,17.68
2022-11-07T03:55:15.353Z,17.68
2022-11-07T03:55:46.740Z,17.68
2022-11-07T03:56:18.158Z,17.69
2022-11-07T03:56:49.561Z,17.68
2022-11-07T03:57:20.951Z,17.68
2022-11-07T03:57:52.366Z,17.68
2022-11-07T03:58:23.782Z,17.68
2022-11-07T03:58:55.174Z,17.68
2022-11-07T03:59:26.561Z,17.67
2022-11-07T03:59:58.031Z,17.68
2022-11-07T04:00:29.423Z,17.67
2022-11-07T04:01:00.830Z,17.67
2022-11-07T04:01:32.369Z,17.67
2022-11-07T04:02:03.940Z,17.67
2022-11-07T04:02:35.560Z,17.66
2022-11-07T04:03:07.008Z,17.66
2022-11-07T04:03:38.409Z,17.66
2022-11-07T04:04:09.816Z,17.66
2022-11-07T04:04:41.207Z,17.66
2022-11-07T04:05:12.699Z,17.65
2022-11-07T04:05:44.114Z,17.66
2022-11-07T04:06:15.503Z,17.66
2022-11-07T04:06:46.896Z,17.65
2022-11-07T04:07:18.314Z,17.65
2022-11-07T04:07:49.704Z,17.66
2022-11-07T04:08:21.121Z,17.66
2022-11-07T04:08:52.512Z,17.66
2022-11-07T04:09:23.922Z,17.65
2022-11-07T04:09:55.325Z,17.65
2022-11-07T04:10:26.863Z,17.66
2022-11-07T04:10:58.252Z,17.65
2022-11-07T04:11:29.646Z,17.64
2022-11-07T04:12:01.061Z,17.65
2022-11-07T04:12:32.460Z,17.64
2022-11-07T04:13:03.863Z,17.65
2022-11-07T04:13:35.291Z,17.64
2022-11-07T04:14:06.681Z,17.63
2022-11-07T04:14:38.071Z,17.65
2022-11-07T04:15:09.454Z,17.65
2022-11-07T04:15:40.923Z,17.64
2022-11-07T04:16:17.256Z,17.64
2022-11-07T04:16:49.029Z,17.64
2022-11-07T04:17:20.446Z,17.63
2022-11-07T04:17:51.855Z,17.63
2022-11-07T04:18:23.258Z,17.63
2022-11-07T04:18:54.642Z,17.63
2022-11-07T04:19:26.050Z,17.63
2022-11-07T04:19:57.446Z,17.63
2022-11-07T04:20:28.831Z,17.63
2022-11-07T04:21:00.310Z,17.62
2022-11-07T04:21:31.699Z,17.62
2022-11-07T04:22:03.090Z,17.62
2022-11-07T04:22:34.469Z,17.61
2022-11-07T04:23:05.875Z,17.62
2022-11-07T04:23:37.265Z,17.61
2022-11-07T04:24:08.658Z,17.61
2022-11-07T04:24:45.384Z,17.62
2022-11-07T04:25:17.272Z,17.61
2022-11-07T04:25:48.671Z,17.61
2022-11-07T04:26:20.099Z,17.61
2022-11-07T04:26:51.491Z,17.62
2022-11-07T04:27:22.877Z,17.61
2022-11-07T04:27:54.268Z,17.61
2022-11-07T04:28:25.673Z,17.61
2022-11-07T04:28:57.055Z,17.60
2022-11-07T04:29:28.438Z,17.60
2022-11-07T04:29:59.826Z,17.60
2022-11-07T04:30:31.215Z,17.59
2022-11-07T04:31:02.628Z,17.60
2022-11-07T04:31:34.063Z,17.60
2022-11-07T04:32:05.450Z,17.60
2022-11-07T04:32:36.842Z,17.60
2022-11-07T04:33:08.226Z,17.58
2022-11-07T04:33:39.615Z,17.59
2022-11-07T04:34:10.998Z,17.60
2022-11-07T04:34:42.388Z,17.59
2022-11-07T04:35:13.778Z,17.59
2022-11-07T04:35:45.230Z,17.58
2022-11-07T04:36:16.631Z,17.59
2022-11-07T04:36:48.125Z,17.58
2022-11-07T04:37:19.519Z,17.58
2022-11-07T04:37:50.902Z,17.58
2022-11-07T04:38:22.297Z,17.58
2022-11-07T04:38:53.690Z,17.57
2022-11-07T04:39:25.083Z,17.58
2022-11-07T04:39:56.471Z,17.58
2022-11-07T04:40:27.887Z,17.58
2022-11-07T04:40:59.279Z,17.58
2022-11-07T04:41:30.675Z,17.57
2022-11-07T04:42:02.190Z,17.57
2022-11-07T04:42:33.605Z,17.56
2022-11-07T04:43:04.995Z,17.56
2022-11-07T04:43:36.400Z,17.57
2022-11-07T04:44:07.791Z,17.56
2022-11-07T04:44:39.182Z,17.56
2022-11-07T04:45:10.572Z,17.57
2022-11-07T04:45:41.921Z,17.55
2022-11-07T04:46:13.312Z,17.56
2022-11-07T04:46:44.700Z,17.56
2022-11-07T04:47:16.147Z,17.56
2022-11-07T04:47:47.526Z,17.55
2022-11-07T04:48:18.934Z,17.56
2022-11-07T04:48:50.318Z,17.56
2022-11-07T04:49:21.722Z,17.56
2022-11-07T04:49:53.131Z,17.55
2022-11-07T04:50:24.689Z,17.56
2022-11-07T04:50:56.074Z,17.55
2022-11-07T04:51:27.476Z,17.55
2022-11-07T04:51:58.874Z,17.55
2022-11-07T04:52:30.303Z,17.55
2022-11-07T04:53:01.742Z,17.54
2022-11-07T04:53:33.145Z,17.55
2022-11-07T04:54:04.534Z,17.54
2022-11-07T04:54:35.939Z,17.54
2022-11-07T04:55:07.335Z,17.54
2022-11-07T04:55:38.723Z,17.53
2022-11-07T04:56:10.126Z,17.54
2022-11-07T04:56:41.527Z,17.53
2022-11-07T04:57:12.913Z,17.53
2022-11-07T04:57:44.462Z,17.53
2022-11-07T04:58:15.850Z,17.53
2022-11-07T04:58:47.274Z,17.54
2022-11-07T04:59:18.691Z,17.53
2022-11-07T04:59:50.139Z,17.53
2022-11-07T05:00:21.535Z,17.54
2022-11-07T05:00:52.930Z,17.52
2022-11-07T05:01:24.379Z,17.53
2022-11-07T05:01:55.902Z,17.53
2022-11-07T05:02:27.453Z,17.53
2022-11-07T05:02:59.086Z,17.52
2022-11-07T05:03:30.544Z,17.52
2022-11-07T05:04:01.930Z,17.51
2022-11-07T05:04:33.334Z,17.51
2022-11-07T05:05:04.818Z,17.52
2022-11-07T05:05:36.222Z,17.51
2022-11-07T05:06:07.619Z,17.51
2022-11-07T05:06:39.010Z,17.51
2022-11-07T05:07:10.403Z,17.51
2022-11-07T05:07:41.811Z,17.50
2022-11-07T05:08:13.299Z,17.50
2022-11-07T05:08:44.682Z,17.51
2022-11-07T05:09:16.072Z,17.50
2022-11-07T05:09:47.468Z,17.49
2022-11-07T05:10:18.882Z,17.51
2022-11-07T05:10:50.288Z,17.51
2022-11-07T05:11:21.678Z,17.51
2022-11-07T05:11:53.066Z,17.49
2022-11-07T05:12:24.451Z,17.50
2022-11-07T05:12:55.854Z,17.49
2022-11-07T05:13:27.361Z,17.49
2022-11-07T05:13:58.772Z,17.48
2022-11-07T05:14:30.163Z,17.47
2022-11-07T05:15:01.582Z,17.48
2022-11-07T05:15:32.967Z,17.48
2022-11-07T05:16:04.354Z,17.48
2022-11-07T05:16:35.757Z,17.47
2022-11-07T05:17:07.144Z,17.47
2022-11-07T05:17:38.582Z,17.48
2022-11-07T05:18:09.970Z,17.47
2022-11-07T05:18:41.386Z,17.48
2022-11-07T05:19:12.867Z,17.47
2022-11-07T05:19:44.250Z,17.47
2022-11-07T05:20:15.634Z,17.47
2022-11-07T05:20:47.046Z,17.48
2022-11-07T05:21:18.433Z,17.46
2022-11-07T05:21:49.823Z,17.47
2022-11-07T05:22:21.642Z,17.47
2022-11-07T05:22:56.280Z,17.47
2022-11-07T05:23:27.961Z,17.46
2022-11-07T05:23:59.469Z,17.46
2022-11-07T05:24:30.850Z,17.46
2022-11-07T05:25:02.243Z,17.45
2022-11-07T05:25:33.659Z,17.46
2022-11-07T05:26:05.042Z,17.45
2022-11-07T05:26:36.458Z,17.45
2022-11-07T05:27:07.870Z,17.45
2022-11-07T05:27:39.256Z,17.45
2022-11-07T05:28:10.659Z,17.45
2022-11-07T05:28:42.067Z,17.45
2022-11-07T05:29:13.551Z,17.45
2022-11-07T05:29:44.939Z,17.45
2022-11-07T05:30:16.404Z,17.44
2022-11-07T05:30:47.789Z,17.43
2022-11-07T05:31:19.185Z,17.43
2022-11-07T05:31:50.571Z,17.45
2022-11-07T05:32:21.965Z,17.44
2022-11-07T05:32:53.426Z,17.43
2022-11-07T05:33:24.842Z,17.43
2022-11-07T05:33:56.273Z,17.43
2022-11-07T05:34:27.663Z,17.44
2022-11-07T05:34:59.064Z,17.42
2022-11-07T05:35:30.458Z,17.43
2022-11-07T05:36:01.854Z,17.43
2022-11-07T05:36:33.242Z,17.42
2022-11-07T05:37:04.651Z,17.42
2022-11-07T05:37:36.061Z,17.42
2022-11-07T05:38:07.450Z,17.42
2022-11-07T05:38:38.840Z,17.43
2022-11-07T05:39:10.297Z,17.42
2022-11-07T05:39:41.690Z,17.43
2022-11-07T05:40:13.087Z,17.42
2022-11-07T05:40:44.478Z,17.42
2022-11-07T05:41:15.882Z,17.42
2022-11-07T05:41:47.273Z,17.42
2022-11-07T05:42:18.678Z,17.41
2022-11-07T05:42:50.074Z,17.40
2022-11-07T05:43:21.467Z,17.41
2022-11-07T05:43:52.852Z,17.41
2022-11-07T05:44:24.399Z,17.40
2022-11-07T05:44:55.795Z,17.40
2022-11-07T05:45:27.191Z,17.41
2022-11-07T05:45:58.590Z,17.39
2022-11-07T05:46:29.980Z,17.41
2022-11-07T05:47:01.388Z,17.40
2022-11-07T05:47:32.789Z,17.39
2022-11-07T05:48:04.175Z,17.39
2022-11-07T05:48:35.603Z,17.40
2022-11-07T05:49:07.001Z,17.40
2022-11-07T05:49:38.535Z,17.40
2022-11-07T05:50:09.927Z,17.40
2022-11-07T05:50:41.333Z,17.39
2022-11-07T05:51:12.723Z,17.39
2022-11-07T05:51:44.276Z,17.39
2022-11-07T05:52:15.723Z,17.39
2022-11-07T05:52:47.176Z,17.38
2022-11-07T05:53:18.860Z,17.39
2022-11-07T05:53:50.467Z,17.39
2022-11-07T05:54:21.871Z,17.38
2022-11-07T05:54:53.435Z,17.38
2022-11-07T05:55:24.832Z,17.39
2022-11-07T05:55:56.239Z,17.38
2022-11-07T05:56:27.647Z,17.38
2022-11-07T05:56:59.055Z,17.39
2022-11-07T05:57:30.443Z,17.39
2022-11-07T05:58:06.817Z,17.38
2022-11-07T05:58:38.522Z,17.39
2022-11-07T05:59:09.928Z,17.38
2022-11-07T05:59:41.348Z,17.38
2022-11-07T06:00:12.759Z,17.37
2022-11-07T06:00:44.153Z,17.37
2022-11-07T06:01:15.559Z,17.37
2022-11-07T06:01:50.937Z,17.37
2022-11-07T06:02:22.856Z,17.36
2022-11-07T06:02:54.526Z,17.38
2022-11-07T06:03:26.060Z,17.37
2022-11-07T06:03:57.473Z,17.37
2022-11-07T06:04:28.893Z,17.37
2022-11-07T06:05:00.284Z,17.37
2022-11-07T06:05:31.720Z,17.37
2022-11-07T06:06:03.118Z,17.37
2022-11-07T06:06:34.512Z,17.36
2022-11-07T06:07:05.907Z,17.37
2022-11-07T06:07:37.295Z,17.37
2022-11-07T06:08:08.698Z,17.36
2022-11-07T06:08:40.089Z,17.37
2022-11-07T06:09:11.487Z,17.36
2022-11-07T06:09:42.885Z,17.37
2022-11-07T06:10:14.273Z,17.37
2022-11-07T06:10:45.731Z,17.38
2022-11-07T06:11:17.114Z,17.37
2022-11-07T06:11:48.506Z,17.36
2022-11-07T06:12:19.892Z,17.37
2022-11-07T06:12:55.990Z,17.36
2022-11-07T06:13:27.549Z,17.34
2022-11-07T06:13:58.940Z,17.37
2022-11-07T06:14:30.331Z,17.36
2022-11-07T06:15:01.734Z,17.36
2022-11-07T06:15:33.127Z,17.36
2022-11-07T06:16:04.602Z,17.36
2022-11-07T06:16:35.991Z,17.36
2022-11-07T06:17:07.379Z,17.36
2022-11-07T06:17:38.771Z,17.36
2022-11-07T06:18:10.163Z,17.36
2022-11-07T06:18:42.009Z,17.37
2022-11-07T06:19:13.451Z,17.36
2022-11-07T06:19:44.840Z,17.34
2022-11-07T06:20:16.237Z,17.35
2022-11-07T06:20:47.631Z,17.34
2022-11-07T06:21:19.042Z,17.34
2022-11-07T06:21:50.447Z,17.34
2022-11-07T06:22:21.837Z,17.34
2022-11-07T06:22:53.229Z,17.34
2022-11-07T06:23:24.629Z,17.34
2022-11-07T06:23:56.013Z,17.34
2022-11-07T06:24:27.418Z,17.34
2022-11-07T06:24:58.806Z,17.34
2022-11-07T06:25:30.215Z,17.34
2022-11-07T06:26:01.611Z,17.33
2022-11-07T06:26:33.130Z,17.34
2022-11-07T06:27:04.524Z,17.34
2022-11-07T06:27:35.947Z,17.34
2022-11-07T06:28:07.473Z,17.35
2022-11-07T06:28:38.902Z,17.34
2022-11-07T06:29:10.291Z,17.34
2022-11-07T06:29:41.681Z,17.34
2022-11-07T06:30:13.073Z,17.33
2022-11-07T06:30:44.482Z,17.33
2022-11-07T06:31:15.883Z,17.33
2022-11-07T06:31:47.294Z,17.33
2022-11-07T06:32:18.683Z,17.34
2022-11-07T06:32:50.081Z,17.33
2022-11-07T06:33:21.490Z,17.34
2022-11-07T06:33:52.953Z,17.34
2022-11-07T06:34:24.337Z,17.34
2022-11-07T06:34:55.742Z,17.34
2022-11-07T06:35:27.131Z,17.34
2022-11-07T06:35:58.519Z,17.33
2022-11-07T06:36:29.927Z,17.33
2022-11-07T06:37:03.339Z,17.33
2022-11-07T06:37:35.062Z,17.33
2022-11-07T06:38:06.454Z,17.34
2022-11-07T06:38:37.889Z,17.34
2022-11-07T06:39:09.304Z,17.34
2022-11-07T06:39:40.713Z,17.34
2022-11-07T06:40:12.118Z,17.34
2022-11-07T06:40:43.516Z,17.34
2022-11-07T06:41:14.932Z,17.34
2022-11-07T06:41:46.316Z,17.33
2022-11-07T06:42:17.726Z,17.33
2022-11-07T06:42:49.149Z,17.33
2022-11-07T06:43:20.917Z,17.33
2022-11-07T06:43:52.503Z,17.33
2022-11-07T06:44:23.894Z,17.33
2022-11-07T06:44:55.307Z,17.33
2022-11-07T06:45:26.718Z,17.32